Terminal Aerodrome Forecast
Issued by NWS

Home | Current Version | Previous Version | Text Only | Print | Product List | Glossary On
Versions: 1 2 3 4 5 6 7 8 9 10 11 12 13 14 15 16
000
FTUS46 KSGX 210500
TAFSNA
TAF
KSNA 210520Z 2106/2206 VRB04KT P6SM FEW015
     FM210800 VRB04KT P6SM OVC015
     FM211700 23007KT P6SM FEW015
     FM220300 VRB04KT P6SM FEW010=

USA.gov is the U.S. government's official web portal to all federal, state and local government web resources and services.